sensor_id;sensor_type;location;lat;lon;timestamp;pressure;altitude;pressure_sealevel;temperature
20058;BMP180;10189;49.546;7.906;2023-08-20T00:01:45;98535.00;;;22.30
20058;BMP180;10189;49.546;7.906;2023-08-20T00:04:13;98542.00;;;22.40
20058;BMP180;10189;49.546;7.906;2023-08-20T00:06:40;98540.00;;;22.30
20058;BMP180;10189;49.546;7.906;2023-08-20T00:09:08;98537.00;;;22.40
20058;BMP180;10189;49.546;7.906;2023-08-20T00:11:34;98540.00;;;22.40
20058;BMP180;10189;49.546;7.906;2023-08-20T00:14:00;98534.00;;;22.30
20058;BMP180;10189;49.546;7.906;2023-08-20T00:16:26;98534.00;;;22.30
20058;BMP180;10189;49.546;7.906;2023-08-20T00:18:52;98537.00;;;22.30
20058;BMP180;10189;49.546;7.906;2023-08-20T00:21:19;98536.00;;;22.30
20058;BMP180;10189;49.546;7.906;2023-08-20T00:23:46;98546.00;;;22.30
20058;BMP180;10189;49.546;7.906;2023-08-20T00:26:12;98554.00;;;22.30
20058;BMP180;10189;49.546;7.906;2023-08-20T00:28:38;98557.00;;;22.20
20058;BMP180;10189;49.546;7.906;2023-08-20T00:31:04;98552.00;;;22.20
20058;BMP180;10189;49.546;7.906;2023-08-20T00:33:31;98552.00;;;22.20
20058;BMP180;10189;49.546;7.906;2023-08-20T00:35:58;98550.00;;;22.20
20058;BMP180;10189;49.546;7.906;2023-08-20T00:38:24;98548.00;;;22.20
20058;BMP180;10189;49.546;7.906;2023-08-20T00:40:50;98556.00;;;22.20
20058;BMP180;10189;49.546;7.906;2023-08-20T00:43:16;98562.00;;;22.10
20058;BMP180;10189;49.546;7.906;2023-08-20T00:45:43;98566.00;;;22.10
20058;BMP180;10189;49.546;7.906;2023-08-20T00:48:10;98553.00;;;22.10
20058;BMP180;10189;49.546;7.906;2023-08-20T00:50:38;98554.00;;;22.10
20058;BMP180;10189;49.546;7.906;2023-08-20T00:53:07;98544.00;;;22.00
20058;BMP180;10189;49.546;7.906;2023-08-20T00:55:33;98544.00;;;21.90
20058;BMP180;10189;49.546;7.906;2023-08-20T00:58:00;98538.00;;;21.90
20058;BMP180;10189;49.546;7.906;2023-08-20T01:00:28;98535.00;;;21.90
20058;BMP180;10189;49.546;7.906;2023-08-20T01:02:54;98540.00;;;21.80
20058;BMP180;10189;49.546;7.906;2023-08-20T01:05:20;98535.00;;;21.80
20058;BMP180;10189;49.546;7.906;2023-08-20T01:08:14;98531.00;;;21.80
20058;BMP180;10189;49.546;7.906;2023-08-20T01:11:01;98522.00;;;21.80
20058;BMP180;10189;49.546;7.906;2023-08-20T01:13:29;98523.00;;;21.80
20058;BMP180;10189;49.546;7.906;2023-08-20T01:15:56;98525.00;;;21.80
20058;BMP180;10189;49.546;7.906;2023-08-20T01:18:23;98525.00;;;21.70
20058;BMP180;10189;49.546;7.906;2023-08-20T01:20:58;98510.00;;;21.70
20058;BMP180;10189;49.546;7.906;2023-08-20T01:26:49;98514.00;;;21.70
20058;BMP180;10189;49.546;7.906;2023-08-20T01:29:20;98504.00;;;21.70
20058;BMP180;10189;49.546;7.906;2023-08-20T01:31:47;98505.00;;;21.70
20058;BMP180;10189;49.546;7.906;2023-08-20T01:34:13;98516.00;;;21.60
20058;BMP180;10189;49.546;7.906;2023-08-20T01:36:39;98511.00;;;21.60
20058;BMP180;10189;49.546;7.906;2023-08-20T01:39:05;98517.00;;;21.60
20058;BMP180;10189;49.546;7.906;2023-08-20T01:41:31;98515.00;;;21.60
20058;BMP180;10189;49.546;7.906;2023-08-20T01:43:57;98529.00;;;21.60
20058;BMP180;10189;49.546;7.906;2023-08-20T01:46:23;98541.00;;;21.60
20058;BMP180;10189;49.546;7.906;2023-08-20T01:48:50;98546.00;;;21.70
20058;BMP180;10189;49.546;7.906;2023-08-20T01:51:16;98539.00;;;21.80
20058;BMP180;10189;49.546;7.906;2023-08-20T01:53:42;98528.00;;;21.80
20058;BMP180;10189;49.546;7.906;2023-08-20T01:56:12;98542.00;;;21.80
20058;BMP180;10189;49.546;7.906;2023-08-20T01:58:39;98541.00;;;21.80
20058;BMP180;10189;49.546;7.906;2023-08-20T02:01:05;98539.00;;;21.80
20058;BMP180;10189;49.546;7.906;2023-08-20T02:03:31;98539.00;;;21.80
20058;BMP180;10189;49.546;7.906;2023-08-20T02:05:57;98545.00;;;21.70
20058;BMP180;10189;49.546;7.906;2023-08-20T02:08:23;98544.00;;;21.70
20058;BMP180;10189;49.546;7.906;2023-08-20T02:10:49;98547.00;;;21.60
20058;BMP180;10189;49.546;7.906;2023-08-20T02:13:15;98550.00;;;21.50
20058;BMP180;10189;49.546;7.906;2023-08-20T02:15:40;98552.00;;;21.50
20058;BMP180;10189;49.546;7.906;2023-08-20T02:18:06;98550.00;;;21.50
20058;BMP180;10189;49.546;7.906;2023-08-20T02:20:32;98552.00;;;21.50
20058;BMP180;10189;49.546;7.906;2023-08-20T02:22:58;98551.00;;;21.40
20058;BMP180;10189;49.546;7.906;2023-08-20T02:25:25;98545.00;;;21.40
20058;BMP180;10189;49.546;7.906;2023-08-20T02:27:54;98545.00;;;21.30
20058;BMP180;10189;49.546;7.906;2023-08-20T02:30:20;98548.00;;;21.30
20058;BMP180;10189;49.546;7.906;2023-08-20T02:32:46;98536.00;;;21.20
20058;BMP180;10189;49.546;7.906;2023-08-20T02:35:12;98546.00;;;21.20
20058;BMP180;10189;49.546;7.906;2023-08-20T02:37:40;98539.00;;;21.20
20058;BMP180;10189;49.546;7.906;2023-08-20T02:40:07;98537.00;;;21.20
20058;BMP180;10189;49.546;7.906;2023-08-20T02:42:34;98538.00;;;21.10
20058;BMP180;10189;49.546;7.906;2023-08-20T02:45:00;98535.00;;;21.10
20058;BMP180;10189;49.546;7.906;2023-08-20T02:47:26;98541.00;;;21.00
20058;BMP180;10189;49.546;7.906;2023-08-20T02:49:51;98546.00;;;21.00
20058;BMP180;10189;49.546;7.906;2023-08-20T02:52:17;98535.00;;;21.00
20058;BMP180;10189;49.546;7.906;2023-08-20T02:54:43;98541.00;;;20.90
20058;BMP180;10189;49.546;7.906;2023-08-20T02:57:09;98542.00;;;20.90
20058;BMP180;10189;49.546;7.906;2023-08-20T02:59:35;98527.00;;;20.90
20058;BMP180;10189;49.546;7.906;2023-08-20T03:02:01;98525.00;;;20.80
20058;BMP180;10189;49.546;7.906;2023-08-20T03:04:29;98524.00;;;20.80
20058;BMP180;10189;49.546;7.906;2023-08-20T03:06:54;98534.00;;;20.80
20058;BMP180;10189;49.546;7.906;2023-08-20T03:09:20;98521.00;;;20.70
20058;BMP180;10189;49.546;7.906;2023-08-20T03:11:46;98523.00;;;20.80
20058;BMP180;10189;49.546;7.906;2023-08-20T03:14:12;98531.00;;;20.80
20058;BMP180;10189;49.546;7.906;2023-08-20T03:16:38;98535.00;;;20.80
20058;BMP180;10189;49.546;7.906;2023-08-20T03:19:04;98520.00;;;20.80
20058;BMP180;10189;49.546;7.906;2023-08-20T03:21:30;98531.00;;;20.80
20058;BMP180;10189;49.546;7.906;2023-08-20T03:23:56;98528.00;;;20.80
20058;BMP180;10189;49.546;7.906;2023-08-20T03:26:21;98526.00;;;20.80
20058;BMP180;10189;49.546;7.906;2023-08-20T03:28:47;98523.00;;;20.90
20058;BMP180;10189;49.546;7.906;2023-08-20T03:31:14;98523.00;;;20.90
20058;BMP180;10189;49.546;7.906;2023-08-20T03:33:41;98513.00;;;20.90
20058;BMP180;10189;49.546;7.906;2023-08-20T03:36:07;98518.00;;;21.00
20058;BMP180;10189;49.546;7.906;2023-08-20T03:38:33;98518.00;;;21.10
20058;BMP180;10189;49.546;7.906;2023-08-20T03:40:59;98520.00;;;21.10
20058;BMP180;10189;49.546;7.906;2023-08-20T03:43:25;98523.00;;;21.20
20058;BMP180;10189;49.546;7.906;2023-08-20T03:45:53;98527.00;;;21.10
20058;BMP180;10189;49.546;7.906;2023-08-20T03:48:19;98519.00;;;21.10
20058;BMP180;10189;49.546;7.906;2023-08-20T03:50:45;98523.00;;;21.00
20058;BMP180;10189;49.546;7.906;2023-08-20T03:53:11;98531.00;;;21.00
20058;BMP180;10189;49.546;7.906;2023-08-20T03:55:37;98529.00;;;20.90
20058;BMP180;10189;49.546;7.906;2023-08-20T03:58:03;98528.00;;;20.90
20058;BMP180;10189;49.546;7.906;2023-08-20T04:00:29;98525.00;;;20.80
20058;BMP180;10189;49.546;7.906;2023-08-20T04:02:55;98534.00;;;20.80
20058;BMP180;10189;49.546;7.906;2023-08-20T04:05:21;98543.00;;;20.80
20058;BMP180;10189;49.546;7.906;2023-08-20T04:07:46;98540.00;;;20.80
20058;BMP180;10189;49.546;7.906;2023-08-20T04:10:12;98546.00;;;20.80
20058;BMP180;10189;49.546;7.906;2023-08-20T04:12:38;98541.00;;;20.80
20058;BMP180;10189;49.546;7.906;2023-08-20T04:15:04;98551.00;;;20.90
20058;BMP180;10189;49.546;7.906;2023-08-20T04:17:32;98550.00;;;20.90
20058;BMP180;10189;49.546;7.906;2023-08-20T04:19:57;98551.00;;;21.00
20058;BMP180;10189;49.546;7.906;2023-08-20T04:22:23;98550.00;;;20.90
20058;BMP180;10189;49.546;7.906;2023-08-20T04:24:49;98562.00;;;21.00
20058;BMP180;10189;49.546;7.906;2023-08-20T04:27:15;98557.00;;;21.10
20058;BMP180;10189;49.546;7.906;2023-08-20T04:29:44;98551.00;;;21.20
20058;BMP180;10189;49.546;7.906;2023-08-20T04:32:10;98545.00;;;21.20
20058;BMP180;10189;49.546;7.906;2023-08-20T04:34:36;98548.00;;;21.20
20058;BMP180;10189;49.546;7.906;2023-08-20T04:37:02;98557.00;;;21.20
20058;BMP180;10189;49.546;7.906;2023-08-20T04:39:28;98560.00;;;21.30
20058;BMP180;10189;49.546;7.906;2023-08-20T04:41:54;98553.00;;;21.30
20058;BMP180;10189;49.546;7.906;2023-08-20T04:44:23;98561.00;;;21.30
20058;BMP180;10189;49.546;7.906;2023-08-20T04:46:49;98566.00;;;21.20
20058;BMP180;10189;49.546;7.906;2023-08-20T04:49:16;98563.00;;;21.10
20058;BMP180;10189;49.546;7.906;2023-08-20T04:51:42;98568.00;;;21.20
20058;BMP180;10189;49.546;7.906;2023-08-20T04:54:08;98572.00;;;21.30
20058;BMP180;10189;49.546;7.906;2023-08-20T04:56:34;98579.00;;;21.40
20058;BMP180;10189;49.546;7.906;2023-08-20T04:59:00;98578.00;;;21.40
20058;BMP180;10189;49.546;7.906;2023-08-20T05:01:52;98581.00;;;21.40
20058;BMP180;10189;49.546;7.906;2023-08-20T05:04:26;98579.00;;;21.50
20058;BMP180;10189;49.546;7.906;2023-08-20T05:06:53;98579.00;;;21.50
20058;BMP180;10189;49.546;7.906;2023-08-20T05:09:19;98580.00;;;21.50
20058;BMP180;10189;49.546;7.906;2023-08-20T05:11:45;98582.00;;;21.50
20058;BMP180;10189;49.546;7.906;2023-08-20T05:14:10;98573.00;;;21.50
20058;BMP180;10189;49.546;7.906;2023-08-20T05:16:37;98562.00;;;21.70
20058;BMP180;10189;49.546;7.906;2023-08-20T05:19:03;98568.00;;;21.70
20058;BMP180;10189;49.546;7.906;2023-08-20T05:21:29;98575.00;;;21.70
20058;BMP180;10189;49.546;7.906;2023-08-20T05:23:55;98569.00;;;21.80
20058;BMP180;10189;49.546;7.906;2023-08-20T05:26:22;98582.00;;;21.70
20058;BMP180;10189;49.546;7.906;2023-08-20T05:28:48;98572.00;;;21.90
20058;BMP180;10189;49.546;7.906;2023-08-20T05:31:14;98577.00;;;22.20
20058;BMP180;10189;49.546;7.906;2023-08-20T05:33:40;98580.00;;;22.30
20058;BMP180;10189;49.546;7.906;2023-08-20T05:36:06;98582.00;;;22.60
20058;BMP180;10189;49.546;7.906;2023-08-20T05:38:32;98579.00;;;22.80
20058;BMP180;10189;49.546;7.906;2023-08-20T05:40:58;98581.00;;;22.90
20058;BMP180;10189;49.546;7.906;2023-08-20T05:43:24;98582.00;;;22.90
20058;BMP180;10189;49.546;7.906;2023-08-20T05:45:50;98584.00;;;23.00
20058;BMP180;10189;49.546;7.906;2023-08-20T05:48:20;98592.00;;;22.90
20058;BMP180;10189;49.546;7.906;2023-08-20T05:50:46;98594.00;;;23.00
20058;BMP180;10189;49.546;7.906;2023-08-20T05:53:12;98587.00;;;23.10
20058;BMP180;10189;49.546;7.906;2023-08-20T05:55:38;98599.00;;;23.20
20058;BMP180;10189;49.546;7.906;2023-08-20T05:58:05;98596.00;;;23.30
20058;BMP180;10189;49.546;7.906;2023-08-20T06:00:32;98595.00;;;23.40
20058;BMP180;10189;49.546;7.906;2023-08-20T06:02:58;98603.00;;;23.40
20058;BMP180;10189;49.546;7.906;2023-08-20T06:05:24;98598.00;;;23.50
20058;BMP180;10189;49.546;7.906;2023-08-20T06:07:49;98605.00;;;23.60
20058;BMP180;10189;49.546;7.906;2023-08-20T06:10:15;98593.00;;;23.40
20058;BMP180;10189;49.546;7.906;2023-08-20T06:12:41;98597.00;;;23.50
20058;BMP180;10189;49.546;7.906;2023-08-20T06:15:08;98595.00;;;23.40
20058;BMP180;10189;49.546;7.906;2023-08-20T06:17:34;98586.00;;;23.50
20058;BMP180;10189;49.546;7.906;2023-08-20T06:20:00;98595.00;;;23.70
20058;BMP180;10189;49.546;7.906;2023-08-20T06:22:25;98597.00;;;23.90
20058;BMP180;10189;49.546;7.906;2023-08-20T06:24:51;98602.00;;;24.30
20058;BMP180;10189;49.546;7.906;2023-08-20T06:27:17;98590.00;;;24.50
20058;BMP180;10189;49.546;7.906;2023-08-20T06:29:43;98590.00;;;24.70
20058;BMP180;10189;49.546;7.906;2023-08-20T06:32:09;98593.00;;;24.80
20058;BMP180;10189;49.546;7.906;2023-08-20T06:34:35;98599.00;;;24.90
20058;BMP180;10189;49.546;7.906;2023-08-20T06:37:02;98594.00;;;24.80
20058;BMP180;10189;49.546;7.906;2023-08-20T06:39:28;98598.00;;;24.90
20058;BMP180;10189;49.546;7.906;2023-08-20T06:41:53;98599.00;;;24.80
20058;BMP180;10189;49.546;7.906;2023-08-20T06:44:20;98596.00;;;24.80
20058;BMP180;10189;49.546;7.906;2023-08-20T06:46:46;98611.00;;;24.80
20058;BMP180;10189;49.546;7.906;2023-08-20T06:49:12;98604.00;;;24.90
20058;BMP180;10189;49.546;7.906;2023-08-20T06:51:37;98613.00;;;25.00
20058;BMP180;10189;49.546;7.906;2023-08-20T06:54:04;98616.00;;;25.20
20058;BMP180;10189;49.546;7.906;2023-08-20T06:56:32;98618.00;;;25.50
20058;BMP180;10189;49.546;7.906;2023-08-20T06:58:58;98607.00;;;25.50
20058;BMP180;10189;49.546;7.906;2023-08-20T07:01:24;98607.00;;;25.60
20058;BMP180;10189;49.546;7.906;2023-08-20T07:03:50;98609.00;;;25.70
20058;BMP180;10189;49.546;7.906;2023-08-20T07:06:16;98613.00;;;25.70
20058;BMP180;10189;49.546;7.906;2023-08-20T07:08:44;98614.00;;;25.70
20058;BMP180;10189;49.546;7.906;2023-08-20T07:11:10;98607.00;;;26.00
20058;BMP180;10189;49.546;7.906;2023-08-20T07:13:36;98610.00;;;26.10
20058;BMP180;10189;49.546;7.906;2023-08-20T07:16:03;98623.00;;;25.90
20058;BMP180;10189;49.546;7.906;2023-08-20T07:18:29;98621.00;;;25.90
20058;BMP180;10189;49.546;7.906;2023-08-20T07:20:56;98620.00;;;26.20
20058;BMP180;10189;49.546;7.906;2023-08-20T07:23:22;98630.00;;;26.10
20058;BMP180;10189;49.546;7.906;2023-08-20T07:25:48;98623.00;;;26.40
20058;BMP180;10189;49.546;7.906;2023-08-20T07:28:17;98635.00;;;26.70
20058;BMP180;10189;49.546;7.906;2023-08-20T07:31:03;98632.00;;;26.80
20058;BMP180;10189;49.546;7.906;2023-08-20T07:33:29;98625.00;;;26.80
20058;BMP180;10189;49.546;7.906;2023-08-20T07:35:55;98628.00;;;26.80
20058;BMP180;10189;49.546;7.906;2023-08-20T07:38:21;98629.00;;;26.90
20058;BMP180;10189;49.546;7.906;2023-08-20T07:40:47;98626.00;;;26.80
20058;BMP180;10189;49.546;7.906;2023-08-20T07:43:14;98632.00;;;27.00
20058;BMP180;10189;49.546;7.906;2023-08-20T07:45:40;98629.00;;;27.30
20058;BMP180;10189;49.546;7.906;2023-08-20T07:48:06;98621.00;;;27.50
20058;BMP180;10189;49.546;7.906;2023-08-20T07:50:32;98627.00;;;27.70
20058;BMP180;10189;49.546;7.906;2023-08-20T07:52:57;98627.00;;;27.80
20058;BMP180;10189;49.546;7.906;2023-08-20T07:55:23;98632.00;;;27.90
20058;BMP180;10189;49.546;7.906;2023-08-20T07:57:49;98625.00;;;27.90
20058;BMP180;10189;49.546;7.906;2023-08-20T08:00:16;98627.00;;;28.10
20058;BMP180;10189;49.546;7.906;2023-08-20T08:02:41;98621.00;;;28.20
20058;BMP180;10189;49.546;7.906;2023-08-20T08:05:08;98622.00;;;28.20
20058;BMP180;10189;49.546;7.906;2023-08-20T08:07:34;98623.00;;;28.30
20058;BMP180;10189;49.546;7.906;2023-08-20T08:10:01;98620.00;;;28.40
20058;BMP180;10189;49.546;7.906;2023-08-20T08:12:27;98624.00;;;28.10
20058;BMP180;10189;49.546;7.906;2023-08-20T08:14:53;98616.00;;;28.20
20058;BMP180;10189;49.546;7.906;2023-08-20T08:17:18;98630.00;;;28.40
20058;BMP180;10189;49.546;7.906;2023-08-20T08:19:44;98623.00;;;28.30
20058;BMP180;10189;49.546;7.906;2023-08-20T08:22:10;98627.00;;;28.40
20058;BMP180;10189;49.546;7.906;2023-08-20T08:24:36;98630.00;;;28.10
20058;BMP180;10189;49.546;7.906;2023-08-20T08:27:02;98629.00;;;28.20
20058;BMP180;10189;49.546;7.906;2023-08-20T08:29:28;98629.00;;;28.30
20058;BMP180;10189;49.546;7.906;2023-08-20T08:31:54;98636.00;;;28.40
20058;BMP180;10189;49.546;7.906;2023-08-20T08:34:19;98643.00;;;28.20
20058;BMP180;10189;49.546;7.906;2023-08-20T08:36:45;98647.00;;;28.40
20058;BMP180;10189;49.546;7.906;2023-08-20T08:39:11;98646.00;;;28.50
20058;BMP180;10189;49.546;7.906;2023-08-20T08:41:39;98643.00;;;28.60
20058;BMP180;10189;49.546;7.906;2023-08-20T08:44:09;98644.00;;;28.70
20058;BMP180;10189;49.546;7.906;2023-08-20T08:46:36;98641.00;;;28.70
20058;BMP180;10189;49.546;7.906;2023-08-20T08:49:03;98645.00;;;28.80
20058;BMP180;10189;49.546;7.906;2023-08-20T08:51:31;98651.00;;;28.50
20058;BMP180;10189;49.546;7.906;2023-08-20T08:53:58;98648.00;;;28.70
20058;BMP180;10189;49.546;7.906;2023-08-20T08:56:24;98647.00;;;29.00
20058;BMP180;10189;49.546;7.906;2023-08-20T08:58:50;98649.00;;;29.10
20058;BMP180;10189;49.546;7.906;2023-08-20T09:01:16;98645.00;;;29.00
20058;BMP180;10189;49.546;7.906;2023-08-20T09:03:42;98647.00;;;29.00
20058;BMP180;10189;49.546;7.906;2023-08-20T09:06:09;98657.00;;;29.20
20058;BMP180;10189;49.546;7.906;2023-08-20T09:08:35;98655.00;;;29.20
20058;BMP180;10189;49.546;7.906;2023-08-20T09:11:02;98652.00;;;29.20
20058;BMP180;10189;49.546;7.906;2023-08-20T09:13:40;98649.00;;;29.30
20058;BMP180;10189;49.546;7.906;2023-08-20T09:16:11;98651.00;;;29.60
20058;BMP180;10189;49.546;7.906;2023-08-20T09:18:43;98641.00;;;29.60
20058;BMP180;10189;49.546;7.906;2023-08-20T09:21:12;98640.00;;;29.40
20058;BMP180;10189;49.546;7.906;2023-08-20T09:23:38;98643.00;;;28.90
20058;BMP180;10189;49.546;7.906;2023-08-20T09:26:07;98657.00;;;29.10
20058;BMP180;10189;49.546;7.906;2023-08-20T09:28:46;98654.00;;;29.20
20058;BMP180;10189;49.546;7.906;2023-08-20T09:31:13;98656.00;;;29.30
20058;BMP180;10189;49.546;7.906;2023-08-20T09:33:54;98652.00;;;29.60
20058;BMP180;10189;49.546;7.906;2023-08-20T09:36:31;98656.00;;;29.70
20058;BMP180;10189;49.546;7.906;2023-08-20T09:38:57;98661.00;;;29.60
20058;BMP180;10189;49.546;7.906;2023-08-20T09:41:25;98661.00;;;29.70
20058;BMP180;10189;49.546;7.906;2023-08-20T09:43:58;98661.00;;;29.90
20058;BMP180;10189;49.546;7.906;2023-08-20T09:46:27;98657.00;;;29.90
20058;BMP180;10189;49.546;7.906;2023-08-20T09:48:56;98661.00;;;30.20
20058;BMP180;10189;49.546;7.906;2023-08-20T09:51:28;98657.00;;;30.30
20058;BMP180;10189;49.546;7.906;2023-08-20T09:54:30;98659.00;;;30.20
20058;BMP180;10189;49.546;7.906;2023-08-20T09:57:01;98658.00;;;30.00
20058;BMP180;10189;49.546;7.906;2023-08-20T09:59:28;98659.00;;;30.10
20058;BMP180;10189;49.546;7.906;2023-08-20T10:01:56;98644.00;;;30.10
20058;BMP180;10189;49.546;7.906;2023-08-20T10:04:24;98646.00;;;30.30
20058;BMP180;10189;49.546;7.906;2023-08-20T10:06:52;98651.00;;;30.40
20058;BMP180;10189;49.546;7.906;2023-08-20T10:09:18;98645.00;;;30.10
20058;BMP180;10189;49.546;7.906;2023-08-20T10:11:45;98651.00;;;30.10
20058;BMP180;10189;49.546;7.906;2023-08-20T10:14:12;98650.00;;;30.20
20058;BMP180;10189;49.546;7.906;2023-08-20T10:16:39;98648.00;;;30.50
20058;BMP180;10189;49.546;7.906;2023-08-20T10:19:08;98653.00;;;30.60
20058;BMP180;10189;49.546;7.906;2023-08-20T10:21:34;98647.00;;;30.70
20058;BMP180;10189;49.546;7.906;2023-08-20T10:24:07;98645.00;;;30.70
20058;BMP180;10189;49.546;7.906;2023-08-20T10:26:36;98653.00;;;30.50
20058;BMP180;10189;49.546;7.906;2023-08-20T10:29:39;98653.00;;;30.60
20058;BMP180;10189;49.546;7.906;2023-08-20T10:32:12;98660.00;;;30.60
20058;BMP180;10189;49.546;7.906;2023-08-20T10:34:42;98648.00;;;30.30
20058;BMP180;10189;49.546;7.906;2023-08-20T10:37:15;98646.00;;;30.50
20058;BMP180;10189;49.546;7.906;2023-08-20T10:39:41;98648.00;;;30.70
20058;BMP180;10189;49.546;7.906;2023-08-20T10:45:09;98639.00;;;30.70
20058;BMP180;10189;49.546;7.906;2023-08-20T10:47:47;98648.00;;;30.60
20058;BMP180;10189;49.546;7.906;2023-08-20T10:50:18;98652.00;;;30.80
20058;BMP180;10189;49.546;7.906;2023-08-20T10:52:49;98651.00;;;30.70
20058;BMP180;10189;49.546;7.906;2023-08-20T10:55:16;98641.00;;;30.90
20058;BMP180;10189;49.546;7.906;2023-08-20T10:57:55;98647.00;;;31.00
20058;BMP180;10189;49.546;7.906;2023-08-20T11:00:22;98638.00;;;31.20
20058;BMP180;10189;49.546;7.906;2023-08-20T11:02:49;98656.00;;;31.30
20058;BMP180;10189;49.546;7.906;2023-08-20T11:05:18;98644.00;;;31.10
20058;BMP180;10189;49.546;7.906;2023-08-20T11:07:48;98653.00;;;31.00
20058;BMP180;10189;49.546;7.906;2023-08-20T11:10:16;98647.00;;;31.10
20058;BMP180;10189;49.546;7.906;2023-08-20T11:12:46;98651.00;;;31.40
20058;BMP180;10189;49.546;7.906;2023-08-20T11:15:13;98648.00;;;31.40
20058;BMP180;10189;49.546;7.906;2023-08-20T11:17:46;98657.00;;;31.30
20058;BMP180;10189;49.546;7.906;2023-08-20T11:20:15;98649.00;;;31.10
20058;BMP180;10189;49.546;7.906;2023-08-20T11:22:42;98651.00;;;31.00
20058;BMP180;10189;49.546;7.906;2023-08-20T11:25:12;98657.00;;;31.10
20058;BMP180;10189;49.546;7.906;2023-08-20T11:27:44;98656.00;;;31.30
20058;BMP180;10189;49.546;7.906;2023-08-20T11:30:11;98656.00;;;31.50
20058;BMP180;10189;49.546;7.906;2023-08-20T11:32:38;98656.00;;;31.60
20058;BMP180;10189;49.546;7.906;2023-08-20T11:35:07;98651.00;;;31.80
20058;BMP180;10189;49.546;7.906;2023-08-20T11:37:34;98652.00;;;31.60
20058;BMP180;10189;49.546;7.906;2023-08-20T11:39:59;98653.00;;;31.60
20058;BMP180;10189;49.546;7.906;2023-08-20T11:42:26;98653.00;;;31.60
20058;BMP180;10189;49.546;7.906;2023-08-20T11:44:55;98651.00;;;31.60
20058;BMP180;10189;49.546;7.906;2023-08-20T11:47:22;98648.00;;;31.80
20058;BMP180;10189;49.546;7.906;2023-08-20T11:49:48;98640.00;;;31.90
20058;BMP180;10189;49.546;7.906;2023-08-20T11:52:13;98640.00;;;31.90
20058;BMP180;10189;49.546;7.906;2023-08-20T11:54:39;98643.00;;;32.00
20058;BMP180;10189;49.546;7.906;2023-08-20T11:57:07;98644.00;;;32.20
20058;BMP180;10189;49.546;7.906;2023-08-20T11:59:34;98645.00;;;32.10
20058;BMP180;10189;49.546;7.906;2023-08-20T12:02:02;98641.00;;;32.20
20058;BMP180;10189;49.546;7.906;2023-08-20T12:04:30;98639.00;;;31.80
20058;BMP180;10189;49.546;7.906;2023-08-20T12:07:05;98643.00;;;31.70
20058;BMP180;10189;49.546;7.906;2023-08-20T12:09:32;98637.00;;;32.00
20058;BMP180;10189;49.546;7.906;2023-08-20T12:11:58;98631.00;;;32.00
20058;BMP180;10189;49.546;7.906;2023-08-20T12:14:25;98630.00;;;32.00
20058;BMP180;10189;49.546;7.906;2023-08-20T12:16:53;98622.00;;;31.90
20058;BMP180;10189;49.546;7.906;2023-08-20T12:19:19;98626.00;;;31.80
20058;BMP180;10189;49.546;7.906;2023-08-20T12:21:45;98626.00;;;32.00
20058;BMP180;10189;49.546;7.906;2023-08-20T12:24:12;98627.00;;;32.10
20058;BMP180;10189;49.546;7.906;2023-08-20T12:26:42;98614.00;;;32.20
20058;BMP180;10189;49.546;7.906;2023-08-20T12:29:08;98617.00;;;32.30
20058;BMP180;10189;49.546;7.906;2023-08-20T12:31:34;98615.00;;;32.10
20058;BMP180;10189;49.546;7.906;2023-08-20T12:34:01;98617.00;;;31.80
20058;BMP180;10189;49.546;7.906;2023-08-20T12:36:28;98621.00;;;31.80
20058;BMP180;10189;49.546;7.906;2023-08-20T12:38:56;98615.00;;;32.00
20058;BMP180;10189;49.546;7.906;2023-08-20T12:41:22;98625.00;;;32.00
20058;BMP180;10189;49.546;7.906;2023-08-20T12:43:48;98623.00;;;31.90
20058;BMP180;10189;49.546;7.906;2023-08-20T12:46:14;98623.00;;;32.00
20058;BMP180;10189;49.546;7.906;2023-08-20T12:48:40;98619.00;;;32.30
20058;BMP180;10189;49.546;7.906;2023-08-20T12:51:06;98618.00;;;32.40
20058;BMP180;10189;49.546;7.906;2023-08-20T12:53:33;98618.00;;;32.10
20058;BMP180;10189;49.546;7.906;2023-08-20T12:55:59;98613.00;;;32.20
20058;BMP180;10189;49.546;7.906;2023-08-20T12:58:24;98598.00;;;32.50
20058;BMP180;10189;49.546;7.906;2023-08-20T13:00:51;98610.00;;;32.70
20058;BMP180;10189;49.546;7.906;2023-08-20T13:03:18;98604.00;;;32.50
20058;BMP180;10189;49.546;7.906;2023-08-20T13:05:44;98609.00;;;32.30
20058;BMP180;10189;49.546;7.906;2023-08-20T13:08:11;98606.00;;;32.40
20058;BMP180;10189;49.546;7.906;2023-08-20T13:10:42;98605.00;;;32.30
20058;BMP180;10189;49.546;7.906;2023-08-20T13:13:21;98606.00;;;32.40
20058;BMP180;10189;49.546;7.906;2023-08-20T13:15:52;98601.00;;;32.70
20058;BMP180;10189;49.546;7.906;2023-08-20T13:18:19;98605.00;;;32.80
20058;BMP180;10189;49.546;7.906;2023-08-20T13:20:45;98593.00;;;32.70
20058;BMP180;10189;49.546;7.906;2023-08-20T13:23:11;98598.00;;;32.80
20058;BMP180;10189;49.546;7.906;2023-08-20T13:25:37;98598.00;;;32.60
20058;BMP180;10189;49.546;7.906;2023-08-20T13:28:03;98596.00;;;32.70
20058;BMP180;10189;49.546;7.906;2023-08-20T13:30:29;98591.00;;;32.70
20058;BMP180;10189;49.546;7.906;2023-08-20T13:32:55;98595.00;;;32.80
20058;BMP180;10189;49.546;7.906;2023-08-20T13:35:21;98601.00;;;33.00
20058;BMP180;10189;49.546;7.906;2023-08-20T13:37:48;98602.00;;;32.60
20058;BMP180;10189;49.546;7.906;2023-08-20T13:40:14;98590.00;;;32.80
20058;BMP180;10189;49.546;7.906;2023-08-20T13:42:40;98595.00;;;32.90
20058;BMP180;10189;49.546;7.906;2023-08-20T13:45:06;98593.00;;;32.90
20058;BMP180;10189;49.546;7.906;2023-08-20T13:47:32;98592.00;;;32.90
20058;BMP180;10189;49.546;7.906;2023-08-20T13:49:58;98599.00;;;32.80
20058;BMP180;10189;49.546;7.906;2023-08-20T13:52:24;98595.00;;;32.70
20058;BMP180;10189;49.546;7.906;2023-08-20T13:54:50;98600.00;;;32.90
20058;BMP180;10189;49.546;7.906;2023-08-20T13:57:16;98597.00;;;33.10
20058;BMP180;10189;49.546;7.906;2023-08-20T13:59:42;98600.00;;;33.00
20058;BMP180;10189;49.546;7.906;2023-08-20T14:02:08;98603.00;;;33.20
20058;BMP180;10189;49.546;7.906;2023-08-20T14:04:34;98597.00;;;33.10
20058;BMP180;10189;49.546;7.906;2023-08-20T14:07:00;98600.00;;;33.20
20058;BMP180;10189;49.546;7.906;2023-08-20T14:09:26;98594.00;;;32.90
20058;BMP180;10189;49.546;7.906;2023-08-20T14:11:52;98594.00;;;33.10
20058;BMP180;10189;49.546;7.906;2023-08-20T14:14:18;98598.00;;;33.30
20058;BMP180;10189;49.546;7.906;2023-08-20T14:16:43;98595.00;;;33.20